Observation data for Amherst on 01/18/2019      Previous  Date  Next       Current Mesonet Observations  Soil Data  Daily Summary Page  Observations in Plain Language
KAMH 180600Z 22011KT 08/M01 A3001 RMK A01 T00761014  RH  053%=      5-min Rain = 0
KAMH 180605Z 22010KT 07/M02 A30 RMK A01 T00701015  RH  055%=      5-min Rain = 0
KAMH 180610Z 22011KT 07/M02 A30 RMK A01 T00671015  RH  056%=      5-min Rain = 0
KAMH 180615Z 22012KT 07/M02 A30 RMK A01 T00661015  RH  057%=      5-min Rain = 0
KAMH 180620Z 22012KT 07/M01 A30 RMK A01 T00671014  RH  057%=      5-min Rain = 0
KAMH 180625Z 22012KT 07/M01 A30 RMK A01 T00681014  RH  056%=      5-min Rain = 0
KAMH 180630Z 23013KT 07/M01 A30 RMK A01 T00701013  RH  056%=      5-min Rain = 0
KAMH 180635Z 23013KT 07/M01 A2999 RMK A01 T00711013  RH  056%=      5-min Rain = 0
KAMH 180640Z 23011KT 07/M01 A2999 RMK A01 T00691014  RH  056%=      5-min Rain = 0
KAMH 180645Z 23011KT 07/M02 A2999 RMK A01 T00651015  RH  057%=      5-min Rain = 0
KAMH 180650Z 23011KT 06/M02 A2999 RMK A01 T00611016  RH  058%=      5-min Rain = 0
KAMH 180655Z 22010KT 06/M02 A2999 RMK A01 T00591016  RH  059%=      5-min Rain = 0
KAMH 180700Z 22010KT 06/M02 A2999 RMK A01 T00581015  RH  060%=      5-min Rain = 0
KAMH 180705Z 22011KT 06/M02 A2999 RMK A01 T00581015  RH  060%=      5-min Rain = 0
KAMH 180710Z 22010KT 06/M02 A2999 RMK A01 T00571015  RH  060%=      5-min Rain = 0
KAMH 180715Z 21010KT 06/M02 A2998 RMK A01 T00561015  RH  061%=      5-min Rain = 0
KAMH 180720Z 21009KT 05/M02 A2998 RMK A01 T00541015  RH  061%=      5-min Rain = 0
KAMH 180725Z 21009KT 05/M02 A2998 RMK A01 T00541015  RH  062%=      5-min Rain = 0
KAMH 180730Z 21008KT 05/M01 A2997 RMK A01 T00541014  RH  062%=      5-min Rain = 0
KAMH 180735Z 22007KT 05/M01 A2997 RMK A01 T00531014  RH  062%=      5-min Rain = 0
KAMH 180740Z 22007KT 05/M02 A2997 RMK A01 T00491015  RH  064%=      5-min Rain = 0
KAMH 180745Z 20007KT 05/M01 A2996 RMK A01 T00491014  RH  064%=      5-min Rain = 0
KAMH 180750Z 18008KT 04/M02 A2996 RMK A01 T00441017  RH  065%=      5-min Rain = 0
KAMH 180755Z 16006KT 03/M02 A2996 RMK A01 T00341020  RH  068%=      5-min Rain = 0
KAMH 180800Z 15006KT 03/M02 A2996 RMK A01 T00251023  RH  071%=      5-min Rain = 0
KAMH 180805Z 16006KT 02/M02 A2996 RMK A01 T00231022  RH  073%=      5-min Rain = 0
KAMH 180810Z 16006KT 02/M02 A2996 RMK A01 T00201023  RH  073%=      5-min Rain = 0
KAMH 180815Z 16007KT 02/M03 A2995 RMK A01 T00171025  RH  074%=      5-min Rain = 0
KAMH 180820Z 18007KT 02/M02 A2995 RMK A01 T00161024  RH  075%=      5-min Rain = 0
KAMH 180825Z 19006KT 02/M03 A2994 RMK A01 T00151025  RH  076%=      5-min Rain = 0
KAMH 180830Z 20006KT 02/M02 A2994 RMK A01 T00151023  RH  076%=      5-min Rain = 0
KAMH 180835Z 20006KT 02/M02 A2994 RMK A01 T00181021  RH  076%=      5-min Rain = 0
KAMH 180840Z 21007KT 03/M02 A2994 RMK A01 T00251017  RH  075%=      5-min Rain = 0
KAMH 180845Z 22008KT 03/M01 A2994 RMK A01 T00341014  RH  071%=      5-min Rain = 0
KAMH 180850Z 22009KT 04/M02 A2994 RMK A01 T00371015  RH  069%=      5-min Rain = 0
KAMH 180855Z 22009KT 04/M02 A2993 RMK A01 T00401015  RH  068%=      5-min Rain = 0
KAMH 180900Z 23010KT 04/M02 A2993 RMK A01 T00421016  RH  066%=      5-min Rain = 0
KAMH 180905Z 23010KT 04/M02 A2993 RMK A01 T00431017  RH  066%=      5-min Rain = 0
KAMH 180910Z 23010KT 04/M02 A2993 RMK A01 T00421018  RH  066%=      5-min Rain = 0
KAMH 180915Z 23009KT 04/M02 A2993 RMK A01 T00401018  RH  066%=      5-min Rain = 0
KAMH 180920Z 23010KT 04/M02 A2993 RMK A01 T00401018  RH  066%=      5-min Rain = 0
KAMH 180925Z 23009KT 04/M02 A2993 RMK A01 T00391019  RH  066%=      5-min Rain = 0
KAMH 180930Z 23009KT 04/M02 A2993 RMK A01 T00381020  RH  066%=      5-min Rain = 0
KAMH 180935Z 23009KT 04/M02 A2992 RMK A01 T00391019  RH  066%=      5-min Rain = 0
KAMH 180940Z 23010KT 04/M02 A2992 RMK A01 T00421017  RH  066%=      5-min Rain = 0
KAMH 180945Z 23010KT 05/M02 A2992 RMK A01 T00471016  RH  064%=      5-min Rain = 0
KAMH 180950Z 23010KT 05/M02 A2992 RMK A01 T00501016  RH  063%=      5-min Rain = 0
KAMH 180955Z 23009KT 05/M02 A2991 RMK A01 T00501016  RH  063%=      5-min Rain = 0
KAMH 181000Z 23009KT 05/M02 A2991 RMK A01 T00501016  RH  063%=      5-min Rain = 0
KAMH 181005Z 23010KT 06/M01 A2991 RMK A01 T00551014  RH  062%=      5-min Rain = 0
KAMH 181010Z 24009KT 06/M01 A2991 RMK A01 T00591013  RH  060%=      5-min Rain = 0
KAMH 181015Z 24010KT 06/M01 A2991 RMK A01 T00641012  RH  059%=      5-min Rain = 0
KAMH 181020Z 24011KT 07/M01 A2991 RMK A01 T00661012  RH  058%=      5-min Rain = 0
KAMH 181025Z 24012KT 07/M01 A299 RMK A01 T00681011  RH  057%=      5-min Rain = 0
KAMH 181030Z 24012G17KT 07/M01 A299 RMK A01 T00701012  RH  057%=      5-min Rain = 0
KAMH 181035Z 24012KT 07/M01 A2989 RMK A01 T00711012  RH  056%=      5-min Rain = 0
KAMH 181040Z 24012KT 07/M01 A2989 RMK A01 T00711012  RH  056%=      5-min Rain = 0
KAMH 181045Z 23012KT 07/M01 A2988 RMK A01 T00711013  RH  056%=      5-min Rain = 0
KAMH 181050Z 24014KT 07/M01 A2988 RMK A01 T00721012  RH  055%=      5-min Rain = 0
KAMH 181055Z 24013KT 07/M01 A2987 RMK A01 T00721012  RH  055%=      5-min Rain = 0
KAMH 181100Z 24012KT 07/M01 A2987 RMK A01 T00711013  RH  056%=      5-min Rain = 0
KAMH 181105Z 24012KT 07/M01 A2987 RMK A01 T00701013  RH  056%=      5-min Rain = 0
KAMH 181110Z 24010KT 07/M01 A2986 RMK A01 T00671014  RH  057%=      5-min Rain = 0
KAMH 181115Z 24009KT 07/M01 A2986 RMK A01 T00661014  RH  057%=      5-min Rain = 0
KAMH 181120Z 23009KT 06/M01 A2986 RMK A01 T00631014  RH  058%=      5-min Rain = 0
KAMH 181125Z 22010KT 06/M01 A2985 RMK A01 T00631014  RH  058%=      5-min Rain = 0
KAMH 181130Z 23009KT 06/M02 A2985 RMK A01 T00611015  RH  059%=      5-min Rain = 0
KAMH 181135Z 23011KT 06/M01 A2984 RMK A01 T00611014  RH  059%=      5-min Rain = 0
KAMH 181140Z 23011KT 06/M01 A2984 RMK A01 T00611014  RH  059%=      5-min Rain = 0
KAMH 181145Z 24011KT 06/M01 A2984 RMK A01 T00611013  RH  059%=      5-min Rain = 0
KAMH 181150Z 24012KT 06/M01 A2985 RMK A01 T00621013  RH  059%=      5-min Rain = 0
KAMH 181155Z 24011KT 06/M01 A2985 RMK A01 T00631012  RH  059%=      5-min Rain = 0
KAMH 181200Z 23009KT 06/M01 A2985 RMK A01 T00641011  RH  059%=      5-min Rain = 0
KAMH 181205Z 24008KT 06/M01 A2985 RMK A01 T00631011  RH  059%=      5-min Rain = 0
KAMH 181210Z 24008KT 06/M01 A2985 RMK A01 T00641010  RH  060%=      5-min Rain = 0
KAMH 181215Z 24008KT 07/M01 A2984 RMK A01 T00651009  RH  059%=      5-min Rain = 0
KAMH 181220Z 24009KT 07/M01 A2984 RMK A01 T00671009  RH  059%=      5-min Rain = 0
KAMH 181225Z 24009KT 07/M01 A2984 RMK A01 T00681009  RH  059%=      5-min Rain = 0
KAMH 181230Z 24010KT 07/M01 A2984 RMK A01 T00701008  RH  058%=      5-min Rain = 0
KAMH 181235Z 23012G17KT 07/M01 A2983 RMK A01 T00721007  RH  058%=      5-min Rain = 0
KAMH 181240Z 24012KT 07/M01 A2983 RMK A01 T00741006  RH  057%=      5-min Rain = 0
KAMH 181245Z 24012KT 07/M01 A2983 RMK A01 T00741006  RH  057%=      5-min Rain = 0
KAMH 181250Z 24012KT 07/M01 A2983 RMK A01 T00741006  RH  057%=      5-min Rain = 0
KAMH 181255Z 24011KT 07/M01 A2982 RMK A01 T00741006  RH  057%=      5-min Rain = 0
KAMH 181300Z 23012KT 08/M01 A2982 RMK A01 T00751006  RH  057%=      5-min Rain = 0
KAMH 181305Z 23011KT 08/M01 A2982 RMK A01 T00761006  RH  057%=      5-min Rain = 0
KAMH 181310Z 23011KT 07/M01 A2983 RMK A01 T00741006  RH  057%=      5-min Rain = 0
KAMH 181315Z 23011KT 08/M01 A2983 RMK A01 T00751006  RH  057%=      5-min Rain = 0
KAMH 181320Z 24011KT 08/M01 A2983 RMK A01 T00751006  RH  057%=      5-min Rain = 0
KAMH 181325Z 24010KT 07/M01 A2983 RMK A01 T00731006  RH  058%=      5-min Rain = 0
KAMH 181330Z 24010KT 07/M01 A2983 RMK A01 T00721007  RH  058%=      5-min Rain = 0
KAMH 181335Z 23011KT 07/M01 A2983 RMK A01 T00711007  RH  058%=      5-min Rain = 0
KAMH 181340Z 23010KT 07/M01 A2983 RMK A01 T00691008  RH  059%=      5-min Rain = 0
KAMH 181345Z 23011KT 07/M01 A2983 RMK A01 T00701008  RH  058%=      5-min Rain = 0
KAMH 181350Z 23009KT 07/M01 A2983 RMK A01 T00691008  RH  058%=      5-min Rain = 0
KAMH 181355Z 23009KT 07/M01 A2983 RMK A01 T00681008  RH  059%=      5-min Rain = 0
KAMH 181400Z 23010KT 07/M01 A2983 RMK A01 T00701007  RH  059%=      5-min Rain = 0
KAMH 181405Z 23011KT 07/M01 A2983 RMK A01 T00721007  RH  058%=      5-min Rain = 0
KAMH 181410Z 23010KT 07/M01 A2982 RMK A01 T00711007  RH  058%=      5-min Rain = 0
KAMH 181415Z 23011KT 07/M01 A2982 RMK A01 T00731005  RH  058%=      5-min Rain = 0
KAMH 181420Z 24011KT 07/M01 A2982 RMK A01 T00741005  RH  058%=      5-min Rain = 0
KAMH 181425Z 24011KT 08/M00 A2982 RMK A01 T00751004  RH  058%=      5-min Rain = 0
KAMH 181430Z 24011KT 08/M00 A2982 RMK A01 T00781003  RH  057%=      5-min Rain = 0
KAMH 181435Z 24011KT 08/M00 A2982 RMK A01 T00791003  RH  057%=      5-min Rain = 0
KAMH 181440Z 24011KT 08/M00 A2982 RMK A01 T00811002  RH  056%=      5-min Rain = 0
KAMH 181445Z 24013G18KT 08/M00 A2982 RMK A01 T00791003  RH  057%=      5-min Rain = 0
KAMH 181450Z 24013KT 08/M00 A2982 RMK A01 T00791002  RH  057%=      5-min Rain = 0
KAMH 181455Z 24013KT 08/00 A2983 RMK A01 T00810000  RH  057%=      5-min Rain = 0
KAMH 181500Z 24013KT 09/00 A2983 RMK A01 T00850002  RH  057%=      5-min Rain = 0
KAMH 181505Z 24013KT 09/00 A2982 RMK A01 T00880002  RH  056%=      5-min Rain = 0
KAMH 181510Z 24013KT 09/00 A2982 RMK A01 T00910002  RH  054%=      5-min Rain = 0
KAMH 181515Z 24013KT 10/00 A2982 RMK A01 T00950002  RH  053%=      5-min Rain = 0
KAMH 181520Z 24015KT 10/00 A2982 RMK A01 T00990001  RH  051%=      5-min Rain = 0
KAMH 181525Z 25015KT 10/00 A2982 RMK A01 T01040002  RH  050%=      5-min Rain = 0
KAMH 181530Z 24016KT 11/00 A2981 RMK A01 T01080000  RH  048%=      5-min Rain = 0
KAMH 181535Z 24014G20KT 11/00 A2981 RMK A01 T01120001  RH  047%=      5-min Rain = 0
KAMH 181540Z 24016G21KT 12/00 A2981 RMK A01 T01160001  RH  046%=      5-min Rain = 0
KAMH 181545Z 24015G20KT 12/00 A2981 RMK A01 T01200002  RH  045%=      5-min Rain = 0
KAMH 181550Z 24014G20KT 12/00 A2981 RMK A01 T01230002  RH  044%=      5-min Rain = 0
KAMH 181555Z 25016G21KT 13/00 A2981 RMK A01 T01260003  RH  044%=      5-min Rain = 0
KAMH 181600Z 25017KT 13/00 A2981 RMK A01 T01290002  RH  042%=      5-min Rain = 0
KAMH 181605Z 25014G19KT 13/00 A2981 RMK A01 T01340004  RH  041%=      5-min Rain = 0
KAMH 181610Z 25015KT 14/00 A2981 RMK A01 T01370003  RH  040%=      5-min Rain = 0
KAMH 181615Z 25015G22KT 14/00 A298 RMK A01 T01430004  RH  039%=      5-min Rain = 0
KAMH 181620Z 25019KT 14/M00 A298 RMK A01 T01411002  RH  038%=      5-min Rain = 0
KAMH 181625Z 25017KT 14/00 A298 RMK A01 T014400-0  RH  038%=      5-min Rain = 0
KAMH 181630Z 25018KT 15/M00 A2981 RMK A01 T01451001  RH  037%=      5-min Rain = 0
KAMH 181635Z 25016G21KT 15/00 A2981 RMK A01 T01480001  RH  037%=      5-min Rain = 0
KAMH 181640Z 25017KT 15/M00 A2981 RMK A01 T01521002  RH  035%=      5-min Rain = 0
KAMH 181645Z 25016KT 15/M00 A298 RMK A01 T01531002  RH  035%=      5-min Rain = 0
KAMH 181650Z 25015G20KT 16/M00 A298 RMK A01 T01551002  RH  035%=      5-min Rain = 0
KAMH 181655Z 25016KT 16/M00 A298 RMK A01 T01571002  RH  034%=      5-min Rain = 0
KAMH 181700Z 25018G23KT 16/M00 A298 RMK A01 T01591003  RH  033%=      5-min Rain = 0
KAMH 181705Z 25018G25KT 16/M00 A298 RMK A01 T01611004  RH  033%=      5-min Rain = 0
KAMH 181710Z 25019G26KT 17/M00 A298 RMK A01 T01651003  RH  032%=      5-min Rain = 0
KAMH 181715Z 25020G27KT 17/M00 A2979 RMK A01 T01671003  RH  032%=      5-min Rain = 0
KAMH 181720Z 26022G31KT 17/M00 A2978 RMK A01 T01721003  RH  031%=      5-min Rain = 0
KAMH 181725Z 26027G34KT 17/M00 A2978 RMK A01 T01741003  RH  030%=      5-min Rain = 0
KAMH 181730Z 26026G34KT 18/M00 A2978 RMK A01 T01751001  RH  031%=      5-min Rain = 0
KAMH 181735Z 26027G35KT 18/00 A2978 RMK A01 T01760001  RH  031%=      5-min Rain = 0
KAMH 181740Z 27032G39KT 17/00 A2977 RMK A01 T01730000  RH  031%=      5-min Rain = 0
KAMH 181745Z 26030G38KT 17/00 A2977 RMK A01 T01740001  RH  031%=      5-min Rain = 0
KAMH 181750Z 27028G35KT 18/00 A2977 RMK A01 T01750003  RH  032%=      5-min Rain = 0
KAMH 181755Z 26031G40KT 18/00 A2976 RMK A01 T01750003  RH  032%=      5-min Rain = 0
KAMH 181800Z 26030G39KT 18/01 A2975 RMK A01 T01750005  RH  032%=      5-min Rain = 0
KAMH 181805Z 26031G38KT 18/01 A2974 RMK A01 T01750005  RH  032%=      5-min Rain = 0
KAMH 181810Z 26032G39KT 18/01 A2974 RMK A01 T01760006  RH  032%=      5-min Rain = 0
KAMH 181815Z 27033G41KT 17/00 A2973 RMK A01 T01730004  RH  032%=      5-min Rain = 0
KAMH 181820Z 27034G42KT 17/00 A2973 RMK A01 T01740004  RH  032%=      5-min Rain = 0
KAMH 181825Z 26036G42KT 17/00 A2973 RMK A01 T01730003  RH  032%=      5-min Rain = 0
KAMH 181830Z 26034G40KT 18/01 A2973 RMK A01 T01750005  RH  032%=      5-min Rain = 0
KAMH 181835Z 26035G42KT 18/00 A2973 RMK A01 T01750003  RH  032%=      5-min Rain = 0
KAMH 181840Z 26033G47KT 18/M00 A2973 RMK A01 T01751001  RH  031%=      5-min Rain = 0
KAMH 181845Z 26036G46KT 18/M00 A2972 RMK A01 T01761001  RH  030%=      5-min Rain = 0
KAMH 181850Z 26033G41KT 17/M00 A2972 RMK A01 T01741001  RH  031%=      5-min Rain = 0
KAMH 181855Z 26031G37KT 18/00 A2971 RMK A01 T01760003  RH  031%=      5-min Rain = 0
KAMH 181900Z 27032G41KT 18/00 A2971 RMK A01 T01750001  RH  031%=      5-min Rain = 0
KAMH 181905Z 26031G41KT 18/00 A2971 RMK A01 T01750001  RH  031%=      5-min Rain = 0
KAMH 181910Z 26030G35KT 18/00 A2971 RMK A01 T01760000  RH  031%=      5-min Rain = 0
KAMH 181915Z 26029G37KT 18/00 A2971 RMK A01 T01760001  RH  031%=      5-min Rain = 0
KAMH 181920Z 26027G36KT 18/00 A297 RMK A01 T01800002  RH  030%=      5-min Rain = 0
KAMH 181925Z 26030G38KT 18/00 A297 RMK A01 T017800-0  RH  030%=      5-min Rain = 0
KAMH 181930Z 27028G36KT 18/00 A2969 RMK A01 T01760004  RH  032%=      5-min Rain = 0
KAMH 181935Z 26030G37KT 18/01 A2969 RMK A01 T01790007  RH  032%=      5-min Rain = 0
KAMH 181940Z 26027G36KT 18/01 A2968 RMK A01 T01790008  RH  032%=      5-min Rain = 0
KAMH 181945Z 26027G38KT 18/01 A2967 RMK A01 T01820008  RH  031%=      5-min Rain = 0
KAMH 181950Z 26033G42KT 18/01 A2967 RMK A01 T01750008  RH  033%=      5-min Rain = 0
KAMH 181955Z 26031G38KT 18/01 A2967 RMK A01 T01760009  RH  033%=      5-min Rain = 0
KAMH 182000Z 25032G46KT 18/01 A2967 RMK A01 T01750007  RH  033%=      5-min Rain = 0
KAMH 182005Z 26034G40KT 18/01 A2967 RMK A01 T01760006  RH  032%=      5-min Rain = 0
KAMH 182010Z 26032G41KT 18/01 A2967 RMK A01 T01760008  RH  033%=      5-min Rain = 0
KAMH 182015Z 27029G36KT 17/01 A2967 RMK A01 T01720008  RH  033%=      5-min Rain = 0
KAMH 182020Z 26027G38KT 16/00 A2967 RMK A01 T01630002  RH  034%=      5-min Rain = 0
KAMH 182025Z 26029G36KT 16/M00 A2967 RMK A01 T01591002  RH  034%=      5-min Rain = 0
KAMH 182030Z 26028G34KT 16/M00 A2968 RMK A01 T01601002  RH  034%=      5-min Rain = 0
KAMH 182035Z 25031G39KT 16/M01 A2967 RMK A01 T01621006  RH  032%=      5-min Rain = 0
KAMH 182040Z 25028G37KT 16/M00 A2967 RMK A01 T01611002  RH  033%=      5-min Rain = 0
KAMH 182045Z 27030G37KT 16/M00 A2967 RMK A01 T01561001  RH  035%=      5-min Rain = 0
KAMH 182050Z 27027G32KT 16/00 A2967 RMK A01 T01630000  RH  034%=      5-min Rain = 0
KAMH 182055Z 27029G37KT 17/00 A2967 RMK A01 T01660003  RH  034%=      5-min Rain = 0
KAMH 182100Z 26025G33KT 17/01 A2967 RMK A01 T01670006  RH  034%=      5-min Rain = 0
KAMH 182105Z 26030G36KT 17/00 A2967 RMK A01 T01660002  RH  033%=      5-min Rain = 0
KAMH 182110Z 26029G39KT 16/M00 A2967 RMK A01 T01641002  RH  033%=      5-min Rain = 0
KAMH 182115Z 25029G36KT 17/M01 A2967 RMK A01 T01651005  RH  032%=      5-min Rain = 0
KAMH 182120Z 26031G38KT 16/M01 A2966 RMK A01 T01641009  RH  031%=      5-min Rain = 0
KAMH 182125Z 25028G37KT 16/M01 A2966 RMK A01 T01641010  RH  031%=      5-min Rain = 0
KAMH 182130Z 25027G35KT 17/M01 A2966 RMK A01 T01691013  RH  029%=      5-min Rain = 0
KAMH 182135Z 26028G35KT 16/M02 A2966 RMK A01 T01641024  RH  028%=      5-min Rain = 0
KAMH 182140Z 26027G33KT 16/M03 A2966 RMK A01 T01581033  RH  027%=      5-min Rain = 0
KAMH 182145Z 26022G30KT 16/M03 A2967 RMK A01 T01631031  RH  026%=      5-min Rain = 0
KAMH 182150Z 26028G35KT 17/M04 A2967 RMK A01 T01681040  RH  024%=      5-min Rain = 0
KAMH 182155Z 26026G32KT 17/M05 A2967 RMK A01 T01661049  RH  023%=      5-min Rain = 0
KAMH 182200Z 26024G31KT 17/M05 A2967 RMK A01 T01651051  RH  022%=      5-min Rain = 0
KAMH 182205Z 27028G36KT 17/M06 A2967 RMK A01 T01681060  RH  020%=      5-min Rain = 0
KAMH 182210Z 27027G35KT 16/M06 A2967 RMK A01 T01631062  RH  021%=      5-min Rain = 0
KAMH 182215Z 26030G37KT 16/M06 A2967 RMK A01 T01601062  RH  021%=      5-min Rain = 0
KAMH 182220Z 26028G36KT 16/M06 A2967 RMK A01 T01561061  RH  022%=      5-min Rain = 0
KAMH 182225Z 27023G30KT 16/M06 A2966 RMK A01 T01621057  RH  022%=      5-min Rain = 0
KAMH 182230Z 26025G34KT 16/M06 A2965 RMK A01 T01631061  RH  021%=      5-min Rain = 0
KAMH 182235Z 27029G38KT 16/M08 A2966 RMK A01 T01621075  RH  019%=      5-min Rain = 0
KAMH 182240Z 27029G36KT 16/M08 A2966 RMK A01 T01561077  RH  019%=      5-min Rain = 0
KAMH 182245Z 27028G34KT 16/M08 A2966 RMK A01 T01561077  RH  019%=      5-min Rain = 0
KAMH 182250Z 27022G33KT 16/M07 A2966 RMK A01 T01581073  RH  020%=      5-min Rain = 0
KAMH 182255Z 27031G38KT 15/M07 A2966 RMK A01 T01541073  RH  020%=      5-min Rain = 0
KAMH 182300Z 28033G41KT 15/M07 A2967 RMK A01 T01501072  RH  021%=      5-min Rain = 0
KAMH 182305Z 27032G41KT 15/M07 A2967 RMK A01 T01451067  RH  022%=      5-min Rain = 0
KAMH 182310Z 28032G41KT 14/M07 A2968 RMK A01 T01411066  RH  023%=      5-min Rain = 0
KAMH 182315Z 27028G39KT 14/M06 A2968 RMK A01 T01381060  RH  025%=      5-min Rain = 0
KAMH 182320Z 27030G38KT 14/M06 A2968 RMK A01 T01371061  RH  025%=      5-min Rain = 0
KAMH 182325Z 27030G35KT 14/M06 A2968 RMK A01 T01361059  RH  025%=      5-min Rain = 0
KAMH 182330Z 27026G33KT 13/M06 A2968 RMK A01 T01331056  RH  026%=      5-min Rain = 0
KAMH 182335Z 28025G32KT 13/M05 A2968 RMK A01 T01321053  RH  027%=      5-min Rain = 0
KAMH 182340Z 27025G31KT 13/M05 A2968 RMK A01 T01311051  RH  028%=      5-min Rain = 0
KAMH 182345Z 28022G30KT 13/M05 A2969 RMK A01 T01281049  RH  029%=      5-min Rain = 0
KAMH 182350Z 28022G27KT 13/M05 A2969 RMK A01 T01261048  RH  029%=      5-min Rain = 0
KAMH 182355Z 28022G31KT 13/M05 A2969 RMK A01 T01251049  RH  030%=      5-min Rain = 0
KAMH 190000Z 28022G32KT 12/M05 A2969 RMK A01 T01241050  RH  029%=      5-min Rain = 0
KAMH 190005Z 28024G30KT 12/M05 A2969 RMK A01 T01241050  RH  029%=      5-min Rain = 0
KAMH 190010Z 28022G30KT 12/M05 A2969 RMK A01 T01231050  RH  030%=      5-min Rain = 0
KAMH 190015Z 29027G37KT 12/M05 A297 RMK A01 T01241048  RH  030%=      5-min Rain = 0
KAMH 190020Z 32029G38KT 12/M02 A2972 RMK A01 T01181022  RH  038%=      5-min Rain = 0
KAMH 190025Z 32029G35KT 11/M01 A2973 RMK A01 T01131012  RH  042%=      5-min Rain = 0
KAMH 190030Z 32035G44KT 10/M00 A2974 RMK A01 T01001002  RH  050%=      5-min Rain = 0
KAMH 190035Z 32037G48KT 09/01 A2975 RMK A01 T00860005  RH  058%=      5-min Rain = 0
KAMH 190040Z 33037G47KT 08/01 A2976 RMK A01 T00820007  RH  060%=      5-min Rain = 0
KAMH 190045Z 32035G45KT 08/01 A2977 RMK A01 T00800009  RH  061%=      5-min Rain = 0
KAMH 190050Z 32034G44KT 08/01 A2978 RMK A01 T00800010  RH  062%=      5-min Rain = 0
KAMH 190055Z 33033G43KT 08/01 A2979 RMK A01 T00780011  RH  064%=      5-min Rain = 0
KAMH 190100Z 33034G45KT 08/01 A2979 RMK A01 T00750013  RH  066%=      5-min Rain = 0
KAMH 190105Z 33033G41KT 07/02 A298 RMK A01 T00660021  RH  074%=      5-min Rain = 0
KAMH 190110Z 34034G41KT 06/03 A298 RMK A01 T00610028  RH  081%=      5-min Rain = 0
KAMH 190115Z 33029G37KT 06/03 A2982 RMK A01 T00580029  RH  083%=      5-min Rain = 0
KAMH 190120Z 32029G36KT 06/03 A2983 RMK A01 T00560029  RH  085%=      5-min Rain = 0
KAMH 190125Z 32026G34KT 06/03 A2984 RMK A01 T00550028  RH  084%=      5-min Rain = 0
KAMH 190130Z 33032G41KT 05/02 A2984 RMK A01 T00520022  RH  083%=      5-min Rain = 0
KAMH 190135Z 33028G34KT 05/02 A2985 RMK A01 T00480020  RH  083%=      5-min Rain = 0
KAMH 190140Z 32027G33KT 05/02 A2985 RMK A01 T00470022  RH  085%=      5-min Rain = 0
KAMH 190145Z 33028G36KT 05/02 A2986 RMK A01 T00460021  RH  085%=      5-min Rain = 0
KAMH 190150Z 32028G36KT 04/02 A2986 RMK A01 T00430019  RH  086%=      5-min Rain = 0
KAMH 190155Z 32028G35KT 04/02 A2987 RMK A01 T00410019  RH  087%=      5-min Rain = 0
KAMH 190200Z 33026G32KT 04/02 A2987 RMK A01 T00410020  RH  088%=      5-min Rain = 0
KAMH 190205Z 32026G32KT 04/02 A2987 RMK A01 T00410020  RH  088%=      5-min Rain = 0
KAMH 190210Z 33025G31KT 04/02 A2988 RMK A01 T00410021  RH  088%=      5-min Rain = 0
KAMH 190215Z 33026G32KT 04/02 A2988 RMK A01 T00420020  RH  087%=      5-min Rain = 0
KAMH 190220Z 33023G29KT 04/02 A2988 RMK A01 T00420021  RH  088%=      5-min Rain = 0
KAMH 190225Z 33024G31KT 04/02 A2989 RMK A01 T00420020  RH  087%=      5-min Rain = 0
KAMH 190230Z 33024G31KT 04/02 A299 RMK A01 T00430018  RH  085%=      5-min Rain = 0
KAMH 190235Z 34025G32KT 04/02 A299 RMK A01 T00430017  RH  085%=      5-min Rain = 0
KAMH 190240Z 34025G32KT 04/02 A299 RMK A01 T00420015  RH  084%=      5-min Rain = 0
KAMH 190245Z 34022G29KT 04/02 A2991 RMK A01 T00410017  RH  085%=      5-min Rain = 0
KAMH 190250Z 33024G30KT 04/02 A2992 RMK A01 T00400016  RH  085%=      5-min Rain = 0
KAMH 190255Z 33024G31KT 04/02 A2992 RMK A01 T00390015  RH  085%=      5-min Rain = 0
KAMH 190300Z 33026G31KT 04/01 A2993 RMK A01 T00380014  RH  085%=      5-min Rain = 0
KAMH 190305Z 33026G33KT 04/01 A2994 RMK A01 T00370013  RH  085%=      5-min Rain = 0
KAMH 190310Z 33025G32KT 04/01 A2994 RMK A01 T00350012  RH  086%=      5-min Rain = 0
KAMH 190315Z 34023G32KT 03/01 A2995 RMK A01 T00330014  RH  089%=      5-min Rain = 0
KAMH 190320Z 34028G38KT 03/01 A2995 RMK A01 T00290011  RH  089%=      5-min Rain = 0
KAMH 190325Z 34025G33KT 03/01 A2996 RMK A01 T00250009  RH  091%=      5-min Rain = 0.01
KAMH 190330Z 34028G34KT 02/01 A2997 RMK A01 T00220007  RH  091%=      5-min Rain = 0
KAMH 190335Z 34028G36KT 02/00 A2998 RMK A01 T00190004  RH  091%=      5-min Rain = 0
KAMH 190340Z 34029G35KT 02/00 A2998 RMK A01 T00150001  RH  091%=      5-min Rain = 0.01
KAMH 190345Z 33025G32KT 01/00 A2998 RMK A01 T00120000  RH  093%=      5-min Rain = 0
KAMH 190350Z 33027G34KT 01/M00 A2999 RMK A01 T00101001  RH  093%=      5-min Rain = 0
KAMH 190355Z 33024G32KT 01/M00 A2999 RMK A01 T00081003  RH  094%=      5-min Rain = 0
KAMH 190400Z 34025G31KT 01/M00 A30 RMK A01 T00071003  RH  094%=      5-min Rain = 0
KAMH 190405Z 34026G35KT 01/M00 A30 RMK A01 T00071004  RH  093%=      5-min Rain = 0
KAMH 190410Z 34029G37KT 01/M01 A30 RMK A01 T00071007  RH  092%=      5-min Rain = 0
KAMH 190415Z 34028G34KT 01/M01 A30 RMK A01 T00061007  RH  092%=      5-min Rain = 0
KAMH 190420Z 34024G30KT 01/M01 A3001 RMK A01 T00051006  RH  093%=      5-min Rain = 0
KAMH 190425Z 34023G28KT 01/M01 A3001 RMK A01 T00061005  RH  094%=      5-min Rain = 0
KAMH 190430Z 33022G28KT 01/M01 A3002 RMK A01 T00061005  RH  094%=      5-min Rain = 0
KAMH 190435Z 33021G26KT 01/M00 A3002 RMK A01 T00061004  RH  094%=      5-min Rain = 0
KAMH 190440Z 33022G29KT 01/M00 A3003 RMK A01 T00061004  RH  094%=      5-min Rain = 0
KAMH 190445Z 33022G30KT 01/M00 A3003 RMK A01 T00061004  RH  094%=      5-min Rain = 0
KAMH 190450Z 33022G31KT 01/M00 A3003 RMK A01 T00071004  RH  094%=      5-min Rain = 0
KAMH 190455Z 34025G32KT 01/M00 A3003 RMK A01 T00091004  RH  092%=      5-min Rain = 0
KAMH 190500Z 33025G33KT 01/M00 A3003 RMK A01 T00101004  RH  091%=      5-min Rain = 0
KAMH 190505Z 33025G33KT 01/M00 A3004 RMK A01 T00101004  RH  091%=      5-min Rain = 0
KAMH 190510Z 33026G32KT 01/M01 A3004 RMK A01 T00101005  RH  091%=      5-min Rain = 0
KAMH 190515Z 33026G34KT 01/M01 A3005 RMK A01 T00101005  RH  091%=      5-min Rain = 0
KAMH 190520Z 33024G32KT 01/M01 A3005 RMK A01 T00101005  RH  090%=      5-min Rain = 0
KAMH 190525Z 34022G27KT 01/M01 A3006 RMK A01 T00101005  RH  091%=      5-min Rain = 0
KAMH 190530Z 34024KT 01/M01 A3006 RMK A01 T00101008  RH  089%=      5-min Rain = 0
KAMH 190535Z 34020G26KT 01/M01 A3007 RMK A01 T00101008  RH  089%=      5-min Rain = 0
KAMH 190540Z 34022G27KT 01/M01 A3007 RMK A01 T00101009  RH  088%=      5-min Rain = 0
KAMH 190545Z 33022G30KT 01/M01 A3007 RMK A01 T00101010  RH  088%=      5-min Rain = 0
KAMH 190550Z 34021G28KT 01/M01 A3008 RMK A01 T00091013  RH  086%=      5-min Rain = 0
KAMH 190555Z 33023KT 01/M01 A3008 RMK A01 T00081014  RH  086%=      5-min Rain = 0

Page generated in 0.0092 seconds.